Time;durP1;ratioP1;P1;durP2;ratioP2;P2;SDS_P1;SDS_P2;PMS_P1;PMS_P2;Temp;Humidity;BMP_temperature;BMP_pressure;BME280_temperature;BME280_humidity;BME280_pressure;Samples;Min_cycle;Max_cycle;Signal;HPM_P1;HPM_P2
2024/04/01 00:01:27;;;;;;;70.53;12.88;;;;;;;16.52;100.00;99178.88;5093141;28;20048;-81
2024/04/01 00:04:31;;;;;;;73.05;13.20;;;;;;;16.46;100.00;99168.00;5080677;28;20044;-80
2024/04/01 00:07:36;;;;;;;51.72;11.93;;;;;;;16.57;99.84;99134.94;5093179;28;20427;-82
2024/04/01 00:10:41;;;;;;;57.72;10.40;;;;;;;16.35;100.00;99150.44;5092861;28;20422;-82
2024/04/01 00:13:46;;;;;;;52.38;9.88;;;;;;;16.32;100.00;99139.19;5093026;28;20048;-82
2024/04/01 00:16:50;;;;;;;67.43;10.98;;;;;;;16.28;100.00;99127.91;5080648;28;20058;-81
2024/04/01 00:19:55;;;;;;;50.90;11.13;;;;;;;16.21;100.00;99119.75;5092758;28;20040;-81
2024/04/01 00:22:59;;;;;;;65.47;11.48;;;;;;;16.22;100.00;99096.19;5093006;28;20044;-83
2024/04/01 00:26:04;;;;;;;58.00;11.98;;;;;;;16.26;100.00;99090.22;5092984;28;20044;-83
2024/04/01 00:29:08;;;;;;;54.50;10.77;;;;;;;15.60;100.00;99099.78;5093238;28;20051;-82
2024/04/01 00:32:13;;;;;;;47.65;8.70;;;;;;;15.95;100.00;99102.53;5093023;28;20044;-82
2024/04/01 00:35:18;;;;;;;47.72;9.77;;;;;;;15.73;100.00;99139.63;5068992;28;20044;-82
2024/04/01 00:38:22;;;;;;;44.13;9.80;;;;;;;16.04;100.00;99145.50;5092836;28;20047;-81
2024/04/01 00:41:27;;;;;;;62.45;9.02;;;;;;;15.58;100.00;99131.63;5069006;28;20051;-82
2024/04/01 00:44:31;;;;;;;41.75;8.55;;;;;;;16.03;99.89;99154.63;5096470;28;20082;-81
2024/04/01 00:47:36;;;;;;;48.80;8.77;;;;;;;16.28;98.43;99204.56;5096627;28;20051;-83
2024/04/01 00:50:46;;;;;;;35.78;8.02;;;;;;;16.40;98.04;99206.72;5096480;28;20050;-82
2024/04/01 00:53:51;;;;;;;50.30;8.98;;;;;;;16.37;98.03;99202.53;5096333;28;20047;-81
2024/04/01 00:56:56;;;;;;;42.95;9.05;;;;;;;16.55;97.91;99188.47;5074344;28;20061;-83
2024/04/01 01:00:01;;;;;;;50.72;8.25;;;;;;;16.69;96.52;99184.81;5075822;28;20497;-82
2024/04/01 01:03:07;;;;;;;38.90;9.57;;;;;;;16.69;96.73;99158.53;5075812;28;20072;-82
2024/04/01 01:06:15;;;;;;;37.53;7.30;;;;;;;16.68;97.01;99131.66;5074821;28;20399;-79
2024/04/01 01:09:21;;;;;;;50.90;8.27;;;;;;;16.57;95.37;99122.22;5075795;28;20079;-80
2024/04/01 01:12:26;;;;;;;55.92;9.75;;;;;;;16.02;98.43;99117.75;5075506;28;20047;-78
2024/04/01 01:15:31;;;;;;;51.10;7.97;;;;;;;15.96;99.08;99134.81;5075754;28;20067;-78
2024/04/01 01:18:36;;;;;;;54.22;9.95;;;;;;;15.81;100.00;99123.25;5075763;28;20091;-78
2024/04/01 01:21:42;;;;;;;51.25;8.43;;;;;;;16.43;96.42;99098.81;5074881;28;20372;-79
2024/04/01 01:24:46;;;;;;;51.67;9.23;;;;;;;16.60;95.34;99089.31;5075581;28;20048;-80
2024/04/01 01:27:50;;;;;;;48.45;7.45;;;;;;;16.56;95.00;99093.47;5075570;28;20510;-79
2024/04/01 01:30:55;;;;;;;46.83;9.88;;;;;;;16.16;97.83;99067.25;5075105;28;20071;-79
2024/04/01 01:34:01;;;;;;;48.10;8.07;;;;;;;16.54;95.47;99037.84;5075276;28;20403;-81
2024/04/01 01:37:05;;;;;;;50.08;9.68;;;;;;;16.55;95.55;99050.31;5075254;28;20055;-79
2024/04/01 01:40:10;;;;;;;47.15;9.15;;;;;;;16.27;95.88;99083.75;5075111;28;20486;-79
2024/04/01 01:43:14;;;;;;;47.53;6.93;;;;;;;16.52;95.15;99085.94;5075259;28;20051;-79
2024/04/01 01:46:22;;;;;;;47.00;9.10;;;;;;;16.59;94.71;99094.94;5075168;28;20387;-77
2024/04/01 01:49:26;;;;;;;46.50;8.20;;;;;;;16.50;94.98;99079.88;5075107;28;20055;-77
2024/04/01 01:52:31;;;;;;;48.25;9.38;;;;;;;16.42;95.52;99077.34;5073814;28;20055;-78
2024/04/01 01:55:35;;;;;;;52.83;9.38;;;;;;;16.44;95.58;99067.16;5076881;28;20435;-79
2024/04/01 01:58:39;;;;;;;40.80;7.47;;;;;;;16.29;95.76;99065.41;5082461;28;20047;-77
2024/04/01 02:01:44;;;;;;;36.80;7.82;;;;;;;16.35;95.72;99062.94;5094892;28;20055;-78
2024/04/01 02:04:48;;;;;;;47.67;7.70;;;;;;;16.22;95.37;99037.47;5094704;28;20055;-77
2024/04/01 02:07:52;;;;;;;45.30;7.53;;;;;;;16.34;95.43;99018.78;5081884;28;20047;-78
2024/04/01 02:10:57;;;;;;;34.35;7.60;;;;;;;16.52;94.28;99013.63;5094595;28;20494;-78
2024/04/01 02:14:08;;;;;;;39.08;6.93;;;;;;;16.43;94.26;99016.72;5094648;28;20051;-77
2024/04/01 02:17:13;;;;;;;31.08;6.28;;;;;;;16.33;94.80;99014.41;5094781;28;20482;-77
2024/04/01 02:20:17;;;;;;;25.80;3.90;;;;;;;16.01;95.83;99012.41;5094334;28;20043;-77
2024/04/01 02:23:23;;;;;;;18.13;3.60;;;;;;;16.16;95.05;99010.38;5094713;28;20055;-82
2024/04/01 02:26:27;;;;;;;16.10;3.28;;;;;;;17.02;91.04;99016.81;5082301;28;20425;-81
2024/04/01 02:29:32;;;;;;;18.98;2.92;;;;;;;17.13;90.43;99005.38;5082291;28;20055;-81
2024/04/01 02:32:39;;;;;;;19.10;2.78;;;;;;;17.31;88.39;98986.56;5094467;28;20055;-82
2024/04/01 02:35:43;;;;;;;12.15;1.80;;;;;;;17.43;88.28;98991.13;5094328;28;20524;-81
2024/04/01 02:38:49;;;;;;;17.83;2.30;;;;;;;17.55;87.68;99022.03;5094504;28;20055;-82
2024/04/01 02:41:53;;;;;;;15.85;2.72;;;;;;;17.76;87.37;99037.22;5081451;28;20051;-79
2024/04/01 02:44:57;;;;;;;10.60;1.67;;;;;;;17.68;87.46;99026.59;5094369;28;20103;-78
2024/04/01 02:48:02;;;;;;;10.55;2.17;;;;;;;17.55;87.87;99034.78;5094114;28;20059;-81
2024/04/01 02:51:06;;;;;;;11.88;1.92;;;;;;;17.56;88.02;99022.88;5094034;28;20051;-77
2024/04/01 02:54:10;;;;;;;10.35;2.35;;;;;;;17.49;88.79;99005.72;5093786;28;20047;-76
2024/04/01 02:57:14;;;;;;;23.05;2.70;;;;;;;17.52;88.57;99025.19;5072509;28;20055;-79
2024/04/01 03:00:19;;;;;;;19.98;2.42;;;;;;;17.47;88.47;99033.09;5073787;28;20052;-78
2024/04/01 03:03:23;;;;;;;15.98;2.67;;;;;;;17.48;87.93;99033.91;5072869;28;20501;-78
2024/04/01 03:06:28;;;;;;;11.38;2.60;;;;;;;17.52;87.57;99038.75;5073321;28;20047;-79
2024/04/01 03:09:33;;;;;;;16.05;2.38;;;;;;;17.42;87.76;99032.03;5073606;28;20055;-79
2024/04/01 03:12:42;;;;;;;15.45;2.13;;;;;;;17.55;87.76;99030.16;5073699;28;20119;-80
2024/04/01 03:15:46;;;;;;;9.82;1.75;;;;;;;17.39;89.26;98999.91;5073639;28;20048;-78
2024/04/01 03:18:51;;;;;;;17.08;2.50;;;;;;;17.33;89.95;98982.59;5072711;28;20073;-78
2024/04/01 03:21:56;;;;;;;12.30;2.58;;;;;;;17.43;90.09;98993.84;5073635;28;20051;-79
2024/04/01 03:25:00;;;;;;;14.00;2.28;;;;;;;17.16;91.75;99019.31;5073787;28;20498;-82
2024/04/01 03:28:05;;;;;;;17.20;3.10;;;;;;;16.94;93.10;99026.00;5072627;28;20052;-83
2024/04/01 03:31:11;;;;;;;18.02;2.00;;;;;;;17.17;92.71;99033.72;5073710;28;20107;-81
2024/04/01 03:34:15;;;;;;;14.63;2.60;;;;;;;17.17;92.73;99039.16;5073501;28;20039;-80
2024/04/01 03:37:20;;;;;;;14.95;1.95;;;;;;;16.84;94.07;99041.81;5073205;28;20406;-77
2024/04/01 03:40:24;;;;;;;14.68;2.50;;;;;;;16.89;94.42;99042.88;5073273;28;20494;-77
2024/04/01 03:43:30;;;;;;;16.05;2.92;;;;;;;16.77;95.80;99041.00;5072887;28;20068;-78
2024/04/01 03:46:34;;;;;;;16.40;3.10;;;;;;;17.05;93.99;99040.81;5073381;28;20103;-78
2024/04/01 03:49:39;;;;;;;13.25;2.33;;;;;;;17.13;94.00;99057.72;5072325;28;20060;-78
2024/04/01 03:52:45;;;;;;;12.68;2.50;;;;;;;17.27;93.46;99058.56;5073339;28;20043;-78
2024/04/01 03:55:49;;;;;;;12.52;2.88;;;;;;;17.24;93.54;99069.81;5077826;28;20055;-78
2024/04/01 03:58:53;;;;;;;9.50;2.50;;;;;;;17.37;92.99;99043.53;5081126;28;20047;-78
2024/04/01 04:01:58;;;;;;;13.77;2.47;;;;;;;17.18;93.38;99047.09;5093618;28;20047;-78
2024/04/01 04:05:02;;;;;;;13.30;1.83;;;;;;;17.11;94.33;99043.53;5093235;28;20075;-79
2024/04/01 04:08:06;;;;;;;9.93;2.15;;;;;;;17.09;94.74;99052.91;5093371;28;20060;-78
2024/04/01 04:11:11;;;;;;;13.55;2.30;;;;;;;17.11;94.99;99069.81;5093018;28;20047;-79
2024/04/01 04:14:20;;;;;;;15.25;2.80;;;;;;;17.13;95.07;99082.13;5080860;28;20063;-77
2024/04/01 04:17:24;;;;;;;11.73;1.65;;;;;;;17.12;95.40;99104.00;5094636;28;20055;-79
2024/04/01 04:20:29;;;;;;;9.07;1.98;;;;;;;16.96;96.22;99107.94;5084708;28;20462;-78
2024/04/01 04:23:34;;;;;;;10.85;2.38;;;;;;;16.97;96.42;99112.34;5097061;28;20075;-78
2024/04/01 04:26:39;;;;;;;15.55;3.15;;;;;;;16.82;96.89;99119.81;5096765;28;20047;-81
2024/04/01 04:29:44;;;;;;;12.02;2.40;;;;;;;16.75;97.86;99141.47;5096748;28;20043;-78
2024/04/01 04:32:49;;;;;;;12.27;2.28;;;;;;;16.76;97.80;99134.19;5083991;28;20055;-78
2024/04/01 04:35:53;;;;;;;9.18;1.65;;;;;;;16.94;97.31;99130.91;5096544;28;20066;-79
2024/04/01 04:38:57;;;;;;;8.75;1.52;;;;;;;16.96;96.79;99120.69;5084062;28;20051;-78
2024/04/01 04:42:05;;;;;;;8.60;2.47;;;;;;;16.98;97.27;99105.88;5073708;28;20055;-77
2024/04/01 04:45:09;;;;;;;11.57;2.38;;;;;;;16.91;97.58;99121.31;5096634;28;20055;-78
2024/04/01 04:48:17;;;;;;;6.85;1.70;;;;;;;16.88;98.83;99129.84;5096580;28;20383;-79
2024/04/01 04:51:21;;;;;;;13.80;1.40;;;;;;;16.90;98.56;99100.66;5096611;28;20070;-78
2024/04/01 04:54:25;;;;;;;9.70;2.00;;;;;;;16.99;98.37;99072.28;5096627;28;20043;-79
2024/04/01 04:57:30;;;;;;;11.65;2.00;;;;;;;16.46;100.00;99084.88;5083205;28;20047;-78
2024/04/01 05:00:34;;;;;;;14.25;1.80;;;;;;;16.74;100.00;99068.50;5096540;28;20059;-80
2024/04/01 05:03:39;;;;;;;7.80;1.50;;;;;;;16.81;99.20;99088.34;5096406;28;20055;-77
2024/04/01 05:06:44;;;;;;;10.98;2.30;;;;;;;16.68;100.00;99107.25;5096118;28;20051;-78
2024/04/01 05:09:49;;;;;;;14.02;2.78;;;;;;;16.72;99.86;99089.53;5096672;28;20379;-78
2024/04/01 05:12:53;;;;;;;16.40;2.97;;;;;;;16.68;99.17;99112.69;5096279;28;20043;-82
2024/04/01 05:15:58;;;;;;;10.80;1.88;;;;;;;16.57;100.00;99111.38;5095933;28;20505;-82
2024/04/01 05:19:05;;;;;;;7.90;1.88;;;;;;;16.68;99.87;99126.22;5096534;28;20051;-82
2024/04/01 05:22:09;;;;;;;13.18;2.67;;;;;;;16.56;100.00;99142.25;5096171;28;20043;-80
2024/04/01 05:25:14;;;;;;;13.63;3.17;;;;;;;16.44;100.00;99161.94;5095834;28;20058;-80
2024/04/01 05:28:18;;;;;;;12.88;4.03;;;;;;;16.59;100.00;99143.72;5083279;28;20039;-82
2024/04/01 05:31:23;;;;;;;13.90;2.90;;;;;;;16.49;100.00;99173.03;5095622;28;20063;-77
2024/04/01 05:34:31;;;;;;;7.43;1.90;;;;;;;16.59;100.00;99152.66;5095378;28;20055;-80
2024/04/01 05:37:39;;;;;;;8.90;2.22;;;;;;;16.69;100.00;99163.16;5095487;28;20063;-78
2024/04/01 05:40:43;;;;;;;11.73;1.88;;;;;;;16.77;100.00;99173.78;5082952;28;20435;-80
2024/04/01 05:43:48;;;;;;;6.30;1.52;;;;;;;16.79;100.00;99158.16;5095462;28;20055;-80
2024/04/01 05:46:53;;;;;;;6.03;1.50;;;;;;;16.85;100.00;99169.03;5094997;28;20059;-77
2024/04/01 05:49:57;;;;;;;6.63;1.30;;;;;;;16.85;100.00;99169.03;5071108;28;20051;-79
2024/04/01 05:53:01;;;;;;;8.88;1.70;;;;;;;16.63;100.00;99153.09;5095445;28;20055;-80
2024/04/01 05:56:06;;;;;;;11.60;1.58;;;;;;;16.47;100.00;99175.06;5094848;28;20438;-80
2024/04/01 05:59:10;;;;;;;6.63;1.73;;;;;;;16.76;100.00;99180.25;5095357;28;20126;-79
2024/04/01 06:02:15;;;;;;;10.18;1.92;;;;;;;16.66;100.00;99174.38;5082463;28;20055;-79
2024/04/01 06:05:19;;;;;;;7.88;1.10;;;;;;;16.75;100.00;99163.16;5082520;28;20051;-79
2024/04/01 06:08:24;;;;;;;6.63;0.98;;;;;;;16.77;100.00;99174.63;5095080;28;20489;-79
2024/04/01 06:11:28;;;;;;;4.00;1.15;;;;;;;16.52;95.43;99194.31;5094999;28;20379;-79
2024/04/01 06:14:39;;;;;;;4.88;0.45;;;;;;;16.61;89.93;99196.66;5094990;28;20051;-79
2024/04/01 06:17:44;;;;;;;3.67;0.63;;;;;;;16.80;90.15;99193.19;5094287;28;20146;-79
2024/04/01 06:20:48;;;;;;;3.78;0.50;;;;;;;16.58;89.88;99188.09;5094456;28;20051;-80
2024/04/01 06:23:53;;;;;;;6.07;0.45;;;;;;;16.73;90.09;99186.91;5082172;28;20059;-80
2024/04/01 06:26:57;;;;;;;4.22;0.40;;;;;;;16.86;90.12;99175.28;5082055;28;20059;-78
2024/04/01 06:30:01;;;;;;;5.55;0.90;;;;;;;16.49;89.44;99178.44;5081751;28;20398;-78
2024/04/01 06:33:06;;;;;;;1.35;0.32;;;;;;;16.69;89.08;99176.69;5094528;28;20051;-80
2024/04/01 06:36:10;;;;;;;1.90;0.30;;;;;;;16.62;86.92;99181.22;5094314;28;20051;-79
2024/04/01 06:39:16;;;;;;;2.75;0.40;;;;;;;16.48;87.38;99172.19;5093937;28;20043;-79
2024/04/01 06:42:21;;;;;;;1.80;0.40;;;;;;;16.53;86.78;99152.63;5094082;28;20051;-81
2024/04/01 06:45:25;;;;;;;1.95;0.30;;;;;;;16.53;83.98;99152.63;5094123;28;20043;-82
2024/04/01 06:48:30;;;;;;;1.08;0.30;;;;;;;16.07;83.07;99150.47;5094257;28;20385;-81
2024/04/01 06:51:34;;;;;;;2.20;0.30;;;;;;;16.15;83.28;99134.09;5094120;28;20382;-81
2024/04/01 06:54:38;;;;;;;2.40;0.30;;;;;;;16.14;82.06;99116.19;5081670;28;20567;-82
2024/04/01 06:57:44;;;;;;;1.15;0.30;;;;;;;15.63;85.25;99137.28;5053599;28;20403;-82
2024/04/01 07:00:49;;;;;;;0.50;0.20;;;;;;;15.55;86.21;99128.50;5052935;28;20392;-81
2024/04/01 07:03:54;;;;;;;2.03;0.30;;;;;;;15.52;86.68;99120.75;5052925;28;20048;-79
2024/04/01 07:06:58;;;;;;;1.15;0.30;;;;;;;15.84;86.59;99119.31;5054337;28;20412;-81
2024/04/01 07:10:03;;;;;;;2.15;0.30;;;;;;;15.83;86.45;99128.47;5054013;28;20056;-74
2024/04/01 07:13:07;;;;;;;0.77;0.30;;;;;;;15.78;86.26;99126.34;5053681;28;20051;-75
2024/04/01 07:16:12;;;;;;;2.95;0.30;;;;;;;15.96;85.52;99121.28;5053721;28;20392;-75
2024/04/01 07:19:16;;;;;;;6.93;1.30;;;;;;;15.85;84.58;99121.00;5041446;28;20056;-75
2024/04/01 07:22:21;;;;;;;2.05;0.35;;;;;;;16.15;83.17;99107.00;5053479;28;20495;-73
2024/04/01 07:25:25;;;;;;;1.75;0.25;;;;;;;16.17;83.11;99109.53;5053663;28;20388;-77
2024/04/01 07:28:29;;;;;;;1.48;0.30;;;;;;;16.54;82.14;99100.16;5052498;28;20044;-77
2024/04/01 07:31:34;;;;;;;0.50;0.20;;;;;;;16.44;81.83;99081.53;5053557;28;20475;-76
2024/04/01 07:34:39;;;;;;;1.15;0.40;;;;;;;16.79;82.28;99053.28;5053493;28;20052;-74
2024/04/01 07:37:43;;;;;;;0.95;0.22;;;;;;;16.84;81.24;99048.09;5053441;28;20067;-75
2024/04/01 07:40:48;;;;;;;2.40;0.40;;;;;;;17.15;79.31;99063.78;5053167;28;20491;-78
2024/04/01 07:43:52;;;;;;;2.22;0.30;;;;;;;18.99;73.42;99055.88;5053353;28;20060;-77
2024/04/01 07:46:57;;;;;;;2.40;0.38;;;;;;;18.38;74.77;99055.59;5052989;28;20086;-73
2024/04/01 07:50:02;;;;;;;1.02;0.30;;;;;;;17.98;74.22;99059.50;5063954;28;20056;-75
2024/04/01 07:53:06;;;;;;;1.15;0.30;;;;;;;18.07;70.97;99078.06;5066574;28;20056;-75
2024/04/01 07:56:11;;;;;;;0.90;0.30;;;;;;;18.43;69.68;99063.09;5072619;28;20067;-75
2024/04/01 07:59:15;;;;;;;2.40;0.30;;;;;;;19.47;65.49;99042.56;5097428;28;20055;-74
2024/04/01 08:02:19;;;;;;;2.08;0.17;;;;;;;19.14;64.89;99044.69;5097207;28;20062;-74
2024/04/01 08:05:24;;;;;;;1.27;0.20;;;;;;;18.50;66.76;99017.72;5084942;28;20043;-75
2024/04/01 08:08:29;;;;;;;3.35;0.30;;;;;;;17.82;68.32;98987.53;5097164;28;20047;-75
2024/04/01 08:11:34;;;;;;;3.58;0.30;;;;;;;17.39;70.45;98948.38;5096974;28;20387;-75
2024/04/01 08:14:38;;;;;;;1.73;0.22;;;;;;;17.73;69.51;98948.06;5097318;28;20051;-77
2024/04/01 08:17:44;;;;;;;2.80;0.40;;;;;;;16.59;72.80;98962.19;5097136;28;20051;-80
2024/04/01 08:20:48;;;;;;;2.47;0.40;;;;;;;16.62;73.09;98972.59;5096838;28;20051;-83
2024/04/01 08:23:53;;;;;;;2.80;0.50;;;;;;;16.91;72.63;99004.75;5096901;28;20067;-78
2024/04/01 08:26:57;;;;;;;1.17;0.38;;;;;;;17.00;70.78;99038.72;5097053;28;20498;-80
2024/04/01 08:30:02;;;;;;;3.38;0.40;;;;;;;17.97;68.15;99049.72;5097198;28;20090;-81
2024/04/01 08:33:07;;;;;;;0.68;0.25;;;;;;;18.23;66.92;99082.19;5096954;28;20043;-75
2024/04/01 08:36:12;;;;;;;1.25;0.30;;;;;;;18.44;66.24;99098.19;5096891;28;20378;-80
2024/04/01 08:39:20;;;;;;;3.22;0.60;;;;;;;18.47;66.57;99078.78;5084394;28;20390;-76
2024/04/01 08:42:26;;;;;;;2.25;0.82;;;;;;;18.43;66.69;99091.09;5096779;28;20047;-80
2024/04/01 08:45:34;;;;;;;3.92;0.60;;;;;;;18.46;67.23;99074.41;5096380;28;20055;-77
2024/04/01 08:48:44;;;;;;;2.63;0.47;;;;;;;18.30;68.55;99090.31;5096888;28;20051;-79
2024/04/01 08:51:51;;;;;;;3.08;1.17;;;;;;;18.36;69.21;99103.06;5084072;28;20047;-79
2024/04/01 08:54:55;;;;;;;1.50;0.40;;;;;;;18.27;69.29;99099.72;5084407;28;20489;-79
2024/04/01 08:58:00;;;;;;;4.82;0.35;;;;;;;18.22;68.67;99101.44;5096701;28;20158;-79
2024/04/01 09:01:05;;;;;;;1.52;0.40;;;;;;;18.31;68.40;99106.41;5097039;28;20051;-77
2024/04/01 09:04:09;;;;;;;1.85;0.40;;;;;;;18.54;66.15;99117.63;5082897;28;20050;-78
2024/04/01 09:07:15;;;;;;;4.55;2.25;;;;;;;18.88;65.83;99112.88;5072257;28;20059;-80
2024/04/01 09:10:23;;;;;;;4.30;2.15;;;;;;;18.95;65.08;99121.81;5095896;28;20493;-78
2024/04/01 09:13:31;;;;;;;3.42;1.58;;;;;;;18.70;64.11;99136.19;5083703;28;20047;-78
2024/04/01 09:16:36;;;;;;;2.20;0.95;;;;;;;19.03;62.55;99144.16;5083388;28;20070;-80
2024/04/01 09:19:41;;;;;;;3.63;0.40;;;;;;;19.38;60.49;99137.25;5096021;28;20051;-78
2024/04/01 09:22:46;;;;;;;1.25;0.28;;;;;;;19.56;60.15;99136.47;5095680;28;20513;-79
2024/04/01 09:25:51;;;;;;;3.55;0.30;;;;;;;18.97;60.98;99130.59;5096036;28;20375;-79
2024/04/01 09:28:56;;;;;;;0.73;0.20;;;;;;;19.86;59.76;99131.19;5095467;28;20063;-77
2024/04/01 09:32:00;;;;;;;0.77;0.38;;;;;;;19.36;59.54;99127.59;5095626;28;20063;-76
2024/04/01 09:35:05;;;;;;;3.83;0.30;;;;;;;19.19;60.05;99127.31;5083352;28;20513;-77
2024/04/01 09:38:11;;;;;;;2.45;0.32;;;;;;;19.05;60.58;99116.75;5095800;28;20051;-77
2024/04/01 09:41:16;;;;;;;1.92;0.38;;;;;;;18.96;60.91;99127.03;5095501;28;20043;-78
2024/04/01 09:44:24;;;;;;;0.98;0.20;;;;;;;18.87;60.63;99117.47;5095247;28;20490;-77
2024/04/01 09:47:29;;;;;;;1.02;0.28;;;;;;;18.95;59.85;99098.19;5095421;28;20059;-77
2024/04/01 09:50:37;;;;;;;6.28;2.60;;;;;;;18.83;60.35;99086.34;5095085;28;20059;-77
2024/04/01 09:53:41;;;;;;;5.53;4.00;;;;;;;18.83;61.16;99084.47;5082705;28;20090;-75
2024/04/01 09:57:00;;;;;;;1.33;0.60;;;;;;;18.71;61.85;99067.16;5082055;28;20067;-77
2024/04/01 10:00:13;;;;;;;3.20;1.30;;;;;;;18.69;63.21;99061.09;5094759;28;20047;-73
2024/04/01 10:03:31;;;;;;;;;;;;;;;18.70;63.24;99060.06;5095596;28;20047;-76
2024/04/01 10:06:50;;;;;;;2.53;0.68;;;;;;;18.73;63.09;99054.19;5095132;28;19916;-77
2024/04/01 10:10:08;;;;;;;5.13;1.05;;;;;;;18.84;63.83;99055.38;5094942;28;20055;-76
2024/04/01 10:13:50;;;;;;;2.33;1.20;;;;;;;18.97;62.96;99032.69;5095290;28;20493;-77
2024/04/01 10:17:08;;;;;;;3.30;1.20;;;;;;;19.48;60.98;99034.16;5094814;28;20383;-76
2024/04/01 10:20:45;;;;;;;6.03;1.95;;;;;;;19.18;59.85;99030.41;5094400;28;20059;-76
2024/04/01 10:24:08;;;;;;;3.38;1.17;;;;;;;19.43;57.89;99014.94;5094731;28;20059;-77
2024/04/01 10:27:43;;;;;;;2.30;0.70;;;;;;;19.97;54.85;99007.91;5094736;28;20039;-79
2024/04/01 10:31:33;;;;;;;3.55;1.35;;;;;;;19.74;51.92;99005.84;5082037;28;20052;-78
2024/04/01 10:35:29;;;;;;;2.08;0.70;;;;;;;19.75;52.23;99023.03;5094672;28;20106;-77
2024/04/01 10:39:01;;;;;;;3.30;1.63;;;;;;;19.83;53.51;99033.59;5070295;28;20078;-78
2024/04/01 10:42:14;;;;;;;8.02;2.47;;;;;;;20.52;52.05;99063.19;5095346;28;20564;-83
2024/04/01 10:45:25;;;;;;;;;;;;;;;20.35;50.86;99078.50;5082358;28;20347;-84
2024/04/01 10:48:30;;;;;;;4.95;2.05;;;;;;;20.66;49.63;99089.22;5095058;28;19916;-87
2024/04/01 10:51:55;;;;;;;2.83;1.10;;;;;;;20.16;50.63;99095.91;5081858;28;20051;-78
2024/04/01 10:55:03;;;;;;;3.90;1.60;;;;;;;20.27;50.54;99100.63;5082110;28;20375;-81
2024/04/01 10:58:31;;;;;;;2.55;1.35;;;;;;;20.43;50.71;99108.19;5081848;28;20070;-83
2024/04/01 11:01:48;;;;;;;3.08;1.27;;;;;;;19.99;50.75;99112.84;5094291;28;20043;-78
2024/04/01 11:05:13;;;;;;;6.93;0.82;;;;;;;19.94;49.71;99088.19;5058514;28;20055;-79
2024/04/01 11:08:24;;;;;;;1.35;0.40;;;;;;;20.70;48.39;99117.69;5093717;28;20046;-75
2024/04/01 11:11:56;;;;;;;1.42;0.50;;;;;;;20.71;48.49;99106.53;5094044;28;20043;-76
2024/04/01 11:15:05;;;;;;;1.33;0.55;;;;;;;20.86;47.80;99121.69;5093791;28;20394;-77
2024/04/01 11:18:34;;;;;;;1.75;0.60;;;;;;;20.81;47.17;99124.28;5094079;28;20055;-78
2024/04/01 11:21:47;;;;;;;3.00;0.50;;;;;;;20.71;46.42;99133.81;5093580;28;20051;-76
2024/04/01 11:24:58;;;;;;;;;;;;;;;20.84;46.10;99112.91;5093995;28;20398;-77
2024/04/01 11:28:53;;;;;;;2.50;0.52;;;;;;;20.50;46.89;99125.28;5093848;28;19916;-76
2024/04/01 11:32:00;;;;;;;3.50;0.50;;;;;;;21.06;45.23;99128.56;4991886;28;20061;-76
2024/04/01 11:35:23;;;;;;;3.10;0.82;;;;;;;21.10;44.54;99132.50;4992194;28;20139;-76
2024/04/01 11:38:30;;;;;;;2.60;1.00;;;;;;;21.03;44.28;99134.47;4992080;28;20151;-75
2024/04/01 11:41:38;;;;;;;2.58;1.00;;;;;;;20.99;44.03;99141.44;4981216;28;20138;-79
2024/04/01 11:44:45;;;;;;;2.20;0.75;;;;;;;20.87;43.07;99147.91;4991698;28;20049;-77
2024/04/01 11:47:51;;;;;;;3.03;0.73;;;;;;;20.36;44.43;99140.16;4991964;28;20057;-76
2024/04/01 11:50:57;;;;;;;2.10;0.60;;;;;;;20.27;44.93;99146.97;4991627;28;20516;-79
2024/04/01 11:54:02;;;;;;;2.40;0.68;;;;;;;20.41;44.87;99135.69;4992018;28;20054;-80
2024/04/01 11:57:07;;;;;;;4.45;0.82;;;;;;;20.29;44.71;99140.22;4991638;28;20053;-78
2024/04/01 12:00:13;;;;;;;2.03;0.47;;;;;;;19.80;44.51;99135.63;4991826;28;20057;-79
2024/04/01 12:03:19;;;;;;;1.85;0.50;;;;;;;19.87;45.19;99143.78;4991545;28;20069;-80
2024/04/01 12:06:25;;;;;;;4.25;1.65;;;;;;;19.68;45.86;99123.81;5003965;28;20055;-80
2024/04/01 12:09:32;;;;;;;3.03;0.80;;;;;;;19.87;46.94;99133.72;5080724;28;20070;-80
2024/04/01 12:12:37;;;;;;;2.60;0.82;;;;;;;19.73;46.90;99125.88;5093296;28;20074;-79
2024/04/01 12:15:43;;;;;;;2.35;0.57;;;;;;;20.19;45.64;99117.25;5093569;28;20059;-79
2024/04/01 12:18:50;;;;;;;5.40;0.70;;;;;;;20.11;45.83;99113.75;5080832;28;20047;-79
2024/04/01 12:21:57;;;;;;;3.55;0.90;;;;;;;20.65;45.74;99120.28;5093321;28;20115;-80
2024/04/01 12:25:03;;;;;;;1.80;0.63;;;;;;;19.78;46.35;99113.25;5093135;28;20580;-81
2024/04/01 12:28:08;;;;;;;3.80;1.50;;;;;;;19.93;45.29;99081.03;5069026;28;20047;-80
2024/04/01 12:31:20;;;;;;;5.57;2.17;;;;;;;19.80;45.39;99074.91;5092964;28;20043;-81
2024/04/01 12:34:25;;;;;;;3.22;0.93;;;;;;;19.91;45.67;99087.78;5093024;28;20051;-81
2024/04/01 12:37:30;;;;;;;2.78;0.90;;;;;;;19.99;45.95;99077.44;5081022;28;20047;-77
2024/04/01 12:40:44;;;;;;;5.47;1.23;;;;;;;19.90;45.70;99084.22;5096777;28;20051;-76
2024/04/01 12:43:55;;;;;;;5.50;0.73;;;;;;;20.56;43.95;99078.03;5084204;28;20047;-78
2024/04/01 12:46:59;;;;;;;2.45;0.70;;;;;;;20.57;44.66;99077.78;5096553;28;20051;-77
2024/04/01 12:50:09;;;;;;;3.17;1.30;;;;;;;20.67;43.17;99088.16;5096412;28;20049;-76
2024/04/01 12:53:44;;;;;;;6.80;3.03;;;;;;;20.70;43.54;99087.69;5096473;28;20047;-77
2024/04/01 12:57:27;;;;;;;2.80;0.77;;;;;;;20.84;42.80;99093.81;5095911;28;20055;-76
2024/04/01 13:00:36;;;;;;;3.95;1.20;;;;;;;20.66;43.35;99114.59;5075463;28;20387;-76
2024/04/01 13:03:43;;;;;;;3.35;1.20;;;;;;;20.61;42.92;99113.63;5096335;28;20063;-78
2024/04/01 13:06:59;;;;;;;4.22;1.52;;;;;;;20.25;42.88;99116.34;5095772;28;20383;-77
2024/04/01 13:10:13;;;;;;;4.05;1.20;;;;;;;20.91;42.14;99130.81;5083888;28;20051;-77
2024/04/01 13:13:29;;;;;;;4.20;0.98;;;;;;;21.03;41.15;99131.75;5096208;28;20051;-78
2024/04/01 13:16:45;;;;;;;6.03;2.08;;;;;;;20.53;41.94;99127.56;5095869;28;20051;-75
2024/04/01 13:19:57;;;;;;;4.63;1.30;;;;;;;20.79;41.29;99132.69;5083259;28;20387;-77
2024/04/01 13:23:26;;;;;;;4.43;0.85;;;;;;;20.92;40.88;99124.31;5083117;28;20043;-75
2024/04/01 13:26:36;;;;;;;4.72;1.95;;;;;;;20.56;40.88;99108.03;5095677;28;20051;-75
2024/04/01 13:30:00;;;;;;;5.93;2.92;;;;;;;20.92;41.43;99094.31;5095589;28;20051;-75
2024/04/01 13:33:11;;;;;;;6.63;1.42;;;;;;;21.01;42.83;99092.09;5095344;28;20051;-77
2024/04/01 13:36:25;;;;;;;2.70;0.52;;;;;;;21.12;42.92;99092.16;5083120;28;20063;-74
2024/04/01 13:39:32;;;;;;;;;;;;;;;21.08;42.75;99096.44;5096035;28;20047;-79
2024/04/01 13:42:47;;;;;;;7.53;1.77;;;;;;;21.05;42.75;99091.44;5095477;28;19916;-77
2024/04/01 13:46:16;;;;;;;3.72;0.80;;;;;;;21.06;41.80;99109.44;5095424;28;20390;-77
2024/04/01 13:49:52;;;;;;;4.47;0.70;;;;;;;20.96;42.91;99136.44;5095291;28;20055;-78
2024/04/01 13:53:06;;;;;;;4.20;0.70;;;;;;;20.98;42.59;99126.13;5083022;28;20490;-78
2024/04/01 13:56:29;;;;;;;;;;;;;;;20.87;43.52;99123.34;5083106;28;20055;-77
2024/04/01 13:59:45;;;;;;;3.63;0.77;;;;;;;20.94;43.85;99116.72;5094906;28;19916;-77
2024/04/01 14:03:05;;;;;;;6.38;1.10;;;;;;;20.84;43.53;99119.19;5082562;28;20446;-75
2024/04/01 14:06:28;;;;;;;5.68;1.05;;;;;;;19.97;42.25;99109.50;5094858;28;20047;-79
2024/04/01 14:09:35;;;;;;;4.97;1.03;;;;;;;19.84;41.95;99087.84;5095040;28;20055;-80
2024/04/01 14:12:45;;;;;;;9.63;1.10;;;;;;;19.52;40.48;99089.00;5095152;28;20370;-80
2024/04/01 14:16:09;;;;;;;2.88;0.90;;;;;;;19.99;39.57;99095.66;5094931;28;20051;-80
2024/04/01 14:19:28;;;;;;;4.63;0.80;;;;;;;20.38;39.77;99094.41;5094537;28;20074;-81
2024/04/01 14:22:33;;;;;;;5.57;1.40;;;;;;;20.56;39.27;99097.97;5094917;28;20050;-80
2024/04/01 14:25:48;;;;;;;4.63;1.10;;;;;;;20.67;37.58;99069.91;5095144;28;20118;-77
2024/04/01 14:28:54;;;;;;;4.43;0.60;;;;;;;20.67;38.25;99060.88;5082240;28;20489;-77
2024/04/01 14:31:59;;;;;;;3.92;0.70;;;;;;;20.69;38.00;99092.31;5094613;28;20051;-77
2024/04/01 14:35:03;;;;;;;3.90;0.60;;;;;;;20.57;37.02;99094.16;5094840;28;20047;-77
2024/04/01 14:38:13;;;;;;;3.45;0.80;;;;;;;20.53;37.81;99094.84;5094177;28;20051;-77
2024/04/01 14:41:17;;;;;;;2.53;0.60;;;;;;;20.49;38.91;99126.38;5094167;28;20165;-76